createdAt,value
2023-05-15T00:00:48.227Z,609.00
2023-05-15T00:01:48.213Z,608.00
2023-05-15T00:02:48.272Z,608.00
2023-05-15T00:03:48.251Z,607.00
2023-05-15T00:04:48.232Z,607.00
2023-05-15T00:05:48.213Z,607.00
2023-05-15T00:06:48.187Z,607.00
2023-05-15T00:07:48.170Z,606.00
2023-05-15T00:08:48.163Z,604.00
2023-05-15T00:09:48.204Z,604.00
2023-05-15T00:11:00.775Z,606.00
2023-05-15T00:11:48.281Z,606.00
2023-05-15T00:12:48.238Z,605.00
2023-05-15T00:13:48.238Z,606.00
2023-05-15T00:14:48.245Z,605.00
2023-05-15T00:15:48.238Z,607.00
2023-05-15T00:16:48.218Z,609.00
2023-05-15T00:17:48.288Z,608.00
2023-05-15T00:18:48.326Z,608.00
2023-05-15T00:19:48.202Z,612.00
2023-05-15T00:20:48.191Z,615.00
2023-05-15T00:21:48.186Z,615.00
2023-05-15T00:22:48.180Z,614.00
2023-05-15T00:23:48.172Z,613.00
2023-05-15T00:24:48.160Z,613.00
2023-05-15T00:25:48.182Z,615.00
2023-05-15T00:26:48.166Z,615.00
2023-05-15T00:27:48.175Z,616.00
2023-05-15T00:28:48.145Z,615.00
2023-05-15T00:29:48.132Z,615.00
2023-05-15T00:30:48.125Z,614.00
2023-05-15T00:31:48.162Z,614.00
2023-05-15T00:32:48.155Z,613.00
2023-05-15T00:33:48.100Z,613.00
2023-05-15T00:34:48.157Z,613.00
2023-05-15T00:35:48.087Z,612.00
2023-05-15T00:36:48.086Z,610.00
2023-05-15T00:37:48.128Z,609.00
2023-05-15T00:38:48.196Z,608.00
2023-05-15T00:39:48.259Z,610.00
2023-05-15T00:40:48.290Z,611.00
2023-05-15T00:41:48.355Z,611.00
2023-05-15T00:42:48.404Z,614.00
2023-05-15T00:43:48.493Z,613.00
2023-05-15T00:44:48.510Z,612.00
2023-05-15T00:45:48.572Z,611.00
2023-05-15T00:46:48.658Z,612.00
2023-05-15T00:47:48.679Z,613.00
2023-05-15T00:48:48.737Z,612.00
2023-05-15T00:49:48.795Z,611.00
2023-05-15T00:50:48.858Z,609.00
2023-05-15T00:51:48.919Z,606.00
2023-05-15T00:52:48.965Z,608.00
2023-05-15T00:53:49.070Z,609.00
2023-05-15T00:54:49.127Z,610.00
2023-05-15T00:55:49.136Z,609.00
2023-05-15T00:56:49.196Z,609.00
2023-05-15T00:57:49.243Z,610.00
2023-05-15T00:58:49.298Z,612.00
2023-05-15T00:59:49.386Z,613.00
2023-05-15T01:00:49.441Z,614.00
2023-05-15T01:01:49.464Z,612.00
2023-05-15T01:02:49.643Z,611.00
2023-05-15T01:03:49.592Z,611.00
2023-05-15T01:04:49.636Z,611.00
2023-05-15T01:05:49.693Z,611.00
2023-05-15T01:06:49.747Z,608.00
2023-05-15T01:07:49.799Z,605.00
2023-05-15T01:08:49.838Z,605.00
2023-05-15T01:09:49.898Z,608.00
2023-05-15T01:10:49.948Z,607.00
2023-05-15T01:11:50.009Z,608.00
2023-05-15T01:12:50.064Z,608.00
2023-05-15T01:13:50.105Z,606.00
2023-05-15T01:14:50.156Z,606.00
2023-05-15T01:15:50.250Z,608.00
2023-05-15T01:16:50.280Z,606.00
2023-05-15T01:17:50.365Z,609.00
2023-05-15T01:18:50.438Z,609.00
2023-05-15T01:19:50.650Z,608.00
2023-05-15T01:20:50.483Z,608.00
2023-05-15T01:21:50.530Z,608.00
2023-05-15T01:22:50.585Z,607.00
2023-05-15T01:23:50.630Z,610.00
2023-05-15T01:24:50.692Z,612.00
2023-05-15T01:25:50.752Z,614.00
2023-05-15T01:26:50.812Z,612.00
2023-05-15T01:27:50.877Z,611.00
2023-05-15T01:28:50.917Z,612.00
2023-05-15T01:29:50.967Z,612.00
2023-05-15T01:30:51.033Z,613.00
2023-05-15T01:31:51.153Z,615.00
2023-05-15T01:32:51.202Z,614.00
2023-05-15T01:33:51.194Z,614.00
2023-05-15T01:34:51.242Z,612.00
2023-05-15T01:35:51.311Z,609.00
2023-05-15T01:36:51.354Z,608.00
2023-05-15T01:37:51.409Z,609.00
2023-05-15T01:38:51.477Z,611.00
2023-05-15T01:39:51.526Z,610.00
2023-05-15T01:40:51.596Z,609.00
2023-05-15T01:41:51.643Z,610.00
2023-05-15T01:42:51.701Z,611.00
2023-05-15T01:43:51.760Z,613.00
2023-05-15T01:44:51.807Z,615.00
2023-05-15T01:45:51.913Z,616.00
2023-05-15T01:46:51.957Z,616.00
2023-05-15T01:47:52.099Z,618.00
2023-05-15T01:48:52.022Z,617.00
2023-05-15T01:49:52.068Z,617.00
2023-05-15T01:50:52.128Z,619.00
2023-05-15T01:51:52.188Z,622.00
2023-05-15T01:52:52.229Z,622.00
2023-05-15T01:53:52.298Z,621.00
2023-05-15T01:54:52.352Z,621.00
2023-05-15T01:55:52.439Z,619.00
2023-05-15T01:56:52.463Z,615.00
2023-05-15T01:57:52.519Z,615.00
2023-05-15T01:58:52.575Z,612.00
2023-05-15T01:59:52.626Z,615.00
2023-05-15T02:00:52.698Z,614.00
2023-05-15T02:01:52.823Z,615.00
2023-05-15T02:02:52.859Z,612.00
2023-05-15T02:03:53.026Z,611.00
2023-05-15T02:04:52.927Z,610.00
2023-05-15T02:05:52.978Z,612.00
2023-05-15T02:06:53.031Z,614.00
2023-05-15T02:07:53.131Z,614.00
2023-05-15T02:08:53.161Z,614.00
2023-05-15T02:09:53.210Z,613.00
2023-05-15T02:10:53.296Z,613.00
2023-05-15T02:11:53.353Z,613.00
2023-05-15T02:12:53.366Z,611.00
2023-05-15T02:13:53.421Z,613.00
2023-05-15T02:14:53.485Z,614.00
2023-05-15T02:15:53.549Z,616.00
2023-05-15T02:16:53.604Z,615.00
2023-05-15T02:17:53.693Z,612.00
2023-05-15T02:18:53.764Z,612.00
2023-05-15T02:19:53.794Z,610.00
2023-05-15T02:20:53.813Z,609.00
2023-05-15T02:21:53.889Z,610.00
2023-05-15T02:22:53.933Z,613.00
2023-05-15T02:23:53.986Z,613.00
2023-05-15T02:24:54.048Z,613.00
2023-05-15T02:25:54.107Z,610.00
2023-05-15T02:26:54.178Z,609.00
2023-05-15T02:27:54.218Z,609.00
2023-05-15T02:28:54.283Z,611.00
2023-05-15T02:29:54.337Z,612.00
2023-05-15T02:30:54.397Z,612.00
2023-05-15T02:31:54.477Z,614.00
2023-05-15T02:32:54.566Z,617.00
2023-05-15T02:33:54.577Z,619.00
2023-05-15T02:34:54.647Z,617.00
2023-05-15T02:35:54.728Z,614.00
2023-05-15T02:36:54.792Z,612.00
2023-05-15T02:37:54.816Z,614.00
2023-05-15T02:38:54.877Z,613.00
2023-05-15T02:39:54.924Z,616.00
2023-05-15T02:40:54.991Z,616.00
2023-05-15T02:41:55.036Z,614.00
2023-05-15T02:42:55.111Z,611.00
2023-05-15T02:43:55.174Z,610.00
2023-05-15T02:44:55.227Z,609.00
2023-05-15T02:45:55.309Z,611.00
2023-05-15T02:46:55.340Z,612.00
2023-05-15T02:47:55.433Z,614.00
2023-05-15T02:48:55.462Z,613.00
2023-05-15T02:49:55.518Z,612.00
2023-05-15T02:50:55.588Z,612.00
2023-05-15T02:51:55.661Z,611.00
2023-05-15T02:52:55.689Z,612.00
2023-05-15T02:53:55.759Z,612.00
2023-05-15T02:54:55.812Z,613.00
2023-05-15T02:55:55.879Z,612.00
2023-05-15T02:56:55.953Z,612.00
2023-05-15T02:57:55.999Z,613.00
2023-05-15T02:58:56.065Z,614.00
2023-05-15T02:59:56.114Z,612.00
2023-05-15T03:00:56.217Z,612.00
2023-05-15T03:01:56.255Z,614.00
2023-05-15T03:02:56.405Z,615.00
2023-05-15T03:03:56.418Z,614.00
2023-05-15T03:04:56.435Z,615.00
2023-05-15T03:05:56.506Z,617.00
2023-05-15T03:06:56.566Z,615.00
2023-05-15T03:07:56.664Z,614.00
2023-05-15T03:08:56.691Z,613.00
2023-05-15T03:09:56.745Z,614.00
2023-05-15T03:10:56.806Z,616.00
2023-05-15T03:11:56.876Z,615.00
2023-05-15T03:12:56.928Z,612.00
2023-05-15T03:13:57.097Z,609.00
2023-05-15T03:14:57.050Z,609.00
2023-05-15T03:15:57.115Z,608.00
2023-05-15T03:16:57.213Z,609.00
2023-05-15T03:17:57.302Z,612.00
2023-05-15T03:18:57.358Z,612.00
2023-05-15T03:19:57.370Z,613.00
2023-05-15T03:20:57.432Z,614.00
2023-05-15T03:21:57.490Z,614.00
2023-05-15T03:22:57.548Z,619.00
2023-05-15T03:23:57.642Z,618.00
2023-05-15T03:24:57.675Z,617.00
2023-05-15T03:25:57.748Z,617.00
2023-05-15T03:26:57.800Z,617.00
2023-05-15T03:27:57.869Z,618.00
2023-05-15T03:28:57.929Z,619.00
2023-05-15T03:29:57.970Z,618.00
2023-05-15T03:30:58.088Z,619.00
2023-05-15T03:31:58.176Z,619.00
2023-05-15T03:32:58.205Z,618.00
2023-05-15T03:33:58.237Z,617.00
2023-05-15T03:34:58.292Z,616.00
2023-05-15T03:35:58.340Z,618.00
2023-05-15T03:36:58.405Z,618.00
2023-05-15T03:37:58.495Z,618.00
2023-05-15T03:38:58.533Z,617.00
2023-05-15T03:39:58.617Z,619.00
2023-05-15T03:40:58.642Z,618.00
2023-05-15T03:41:58.709Z,618.00
2023-05-15T03:42:58.767Z,617.00
2023-05-15T03:43:58.827Z,620.00
2023-05-15T03:44:58.881Z,618.00
2023-05-15T03:45:58.950Z,617.00
2023-05-15T03:46:59.109Z,615.00
2023-05-15T03:47:59.126Z,615.00
2023-05-15T03:48:59.141Z,615.00
2023-05-15T03:49:59.215Z,619.00
2023-05-15T03:50:59.266Z,620.00
2023-05-15T03:51:59.321Z,620.00
2023-05-15T03:52:59.393Z,621.00
2023-05-15T03:53:59.450Z,618.00
2023-05-15T03:54:59.512Z,616.00
2023-05-15T03:55:59.588Z,615.00
2023-05-15T03:56:59.632Z,616.00
2023-05-15T03:57:59.692Z,619.00
2023-05-15T03:58:59.751Z,616.00
2023-05-15T03:59:59.798Z,615.00
2023-05-15T04:00:59.871Z,613.00
2023-05-15T04:02:05.087Z,613.00
2023-05-15T04:03:00.008Z,613.00
2023-05-15T04:03:59.922Z,612.00
2023-05-15T04:04:59.918Z,612.00
2023-05-15T04:05:59.904Z,612.00
2023-05-15T04:06:59.892Z,609.00
2023-05-15T04:07:59.890Z,609.00
2023-05-15T04:08:59.881Z,607.00
2023-05-15T04:09:59.877Z,610.00
2023-05-15T04:10:59.880Z,611.00
2023-05-15T04:11:59.904Z,611.00
2023-05-15T04:12:59.860Z,607.00
2023-05-15T04:13:59.857Z,605.00
2023-05-15T04:14:59.849Z,608.00
2023-05-15T04:15:59.893Z,606.00
2023-05-15T04:16:59.818Z,607.00
2023-05-15T04:17:59.854Z,606.00
2023-05-15T04:18:59.840Z,608.00
2023-05-15T04:19:59.796Z,610.00
2023-05-15T04:20:59.792Z,609.00
2023-05-15T04:21:59.808Z,609.00
2023-05-15T04:22:59.795Z,610.00
2023-05-15T04:23:59.782Z,612.00
2023-05-15T04:24:59.853Z,611.00
2023-05-15T04:25:59.904Z,610.00
2023-05-15T04:27:00.000Z,607.00
2023-05-15T04:28:00.063Z,607.00
2023-05-15T04:29:04.124Z,607.00
2023-05-15T04:30:00.195Z,605.00
2023-05-15T04:31:00.246Z,606.00
2023-05-15T04:32:00.414Z,605.00
2023-05-15T04:33:00.363Z,605.00
2023-05-15T04:34:00.377Z,606.00
2023-05-15T04:35:00.438Z,610.00
2023-05-15T04:36:00.523Z,609.00
2023-05-15T04:37:00.573Z,608.00
2023-05-15T04:38:00.633Z,609.00
2023-05-15T04:39:00.688Z,608.00
2023-05-15T04:40:00.779Z,608.00
2023-05-15T04:41:00.820Z,608.00
2023-05-15T04:42:00.913Z,608.00
2023-05-15T04:43:00.953Z,608.00
2023-05-15T04:44:01.059Z,608.00
2023-05-15T04:45:01.074Z,606.00
2023-05-15T04:46:01.163Z,605.00
2023-05-15T04:47:01.176Z,607.00
2023-05-15T04:48:01.288Z,608.00
2023-05-15T04:49:01.292Z,608.00
2023-05-15T04:50:01.387Z,609.00
2023-05-15T04:51:01.443Z,605.00
2023-05-15T04:52:01.475Z,605.00
2023-05-15T04:53:01.532Z,604.00
2023-05-15T04:54:01.578Z,604.00
2023-05-15T04:55:01.668Z,604.00
2023-05-15T04:56:01.704Z,602.00
2023-05-15T04:57:01.767Z,600.00
2023-05-15T04:58:01.816Z,601.00
2023-05-15T04:59:01.944Z,605.00
2023-05-15T05:00:01.962Z,605.00
2023-05-15T05:01:03.903Z,604.00
2023-05-15T05:02:02.149Z,605.00
2023-05-15T05:03:02.090Z,606.00
2023-05-15T05:04:02.026Z,606.00
2023-05-15T05:05:02.012Z,603.00
2023-05-15T05:06:02.070Z,601.00
2023-05-15T05:07:01.971Z,605.00
2023-05-15T05:08:01.960Z,606.00
2023-05-15T05:09:01.980Z,604.00
2023-05-15T05:10:01.971Z,604.00
2023-05-15T05:11:01.948Z,608.00
2023-05-15T05:12:01.936Z,607.00
2023-05-15T05:13:01.931Z,607.00
2023-05-15T05:14:01.923Z,606.00
2023-05-15T05:15:01.922Z,606.00
2023-05-15T05:16:01.993Z,607.00
2023-05-15T05:17:01.917Z,610.00
2023-05-15T05:18:02.007Z,611.00
2023-05-15T05:19:01.923Z,610.00
2023-05-15T05:20:01.886Z,609.00
2023-05-15T05:21:01.883Z,609.00
2023-05-15T05:22:02.072Z,613.00
2023-05-15T05:23:02.038Z,613.00
2023-05-15T05:24:02.075Z,614.00
2023-05-15T05:25:02.132Z,612.00
2023-05-15T05:26:04.123Z,612.00
2023-05-15T05:27:02.577Z,613.00
2023-05-15T05:28:02.182Z,614.00
2023-05-15T05:29:02.204Z,618.00
2023-05-15T05:30:02.173Z,619.00
2023-05-15T05:31:02.258Z,624.00
2023-05-15T05:32:02.690Z,627.00
2023-05-15T05:33:02.186Z,631.00
2023-05-15T05:34:02.133Z,630.00
2023-05-15T05:35:02.166Z,632.00
2023-05-15T05:36:02.141Z,633.00
2023-05-15T05:37:02.585Z,636.00
2023-05-15T05:38:02.118Z,637.00
2023-05-15T05:39:02.583Z,645.00
2023-05-15T05:40:02.100Z,650.00
2023-05-15T05:41:03.096Z,654.00
2023-05-15T05:42:02.577Z,660.00
2023-05-15T05:43:02.075Z,665.00
2023-05-15T05:44:02.064Z,670.00
2023-05-15T05:45:02.093Z,672.00
2023-05-15T05:46:02.165Z,676.00
2023-05-15T05:47:03.625Z,680.00
2023-05-15T05:48:02.294Z,682.00
2023-05-15T05:49:02.303Z,685.00
2023-05-15T05:50:02.505Z,690.00
2023-05-15T05:51:02.425Z,691.00
2023-05-15T05:52:02.581Z,700.00
2023-05-15T05:53:02.537Z,705.00
2023-05-15T05:54:02.593Z,713.00
2023-05-15T05:55:02.661Z,728.00
2023-05-15T05:56:02.715Z,739.00
2023-05-15T05:57:06.279Z,750.00
2023-05-15T05:58:18.318Z,760.00
2023-05-15T05:59:18.403Z,770.00
2023-05-15T06:00:02.768Z,789.00
2023-05-15T06:02:10.210Z,814.00
2023-05-15T06:05:11.153Z,827.00
2023-05-15T06:06:02.730Z,835.00
2023-05-15T06:07:03.698Z,839.00
2023-05-15T06:09:10.083Z,838.00
2023-05-15T06:10:05.881Z,837.00
2023-05-15T06:11:05.873Z,836.00
2023-05-15T06:12:03.374Z,836.00
2023-05-15T06:13:02.667Z,836.00
2023-05-15T06:14:10.058Z,836.00
2023-05-15T06:15:02.666Z,835.00
2023-05-15T06:16:03.748Z,837.00
2023-05-15T06:17:03.231Z,836.00
2023-05-15T06:18:02.714Z,833.00
2023-05-15T06:19:02.776Z,833.00
2023-05-15T06:20:02.607Z,833.00
2023-05-15T06:21:02.671Z,832.00
2023-05-15T06:22:03.103Z,835.00
2023-05-15T06:23:03.093Z,834.00
2023-05-15T06:24:02.712Z,834.00
2023-05-15T06:25:02.786Z,830.00
2023-05-15T06:26:02.856Z,828.00
2023-05-15T06:27:03.088Z,827.00
2023-05-15T06:28:02.999Z,827.00
2023-05-15T06:29:03.041Z,825.00
2023-05-15T06:30:03.143Z,823.00
2023-05-15T06:31:03.271Z,820.00
2023-05-15T06:32:03.604Z,819.00
2023-05-15T06:33:03.636Z,818.00
2023-05-15T06:34:03.335Z,817.00
2023-05-15T06:35:03.391Z,814.00
2023-05-15T06:36:03.444Z,809.00
2023-05-15T06:37:03.670Z,808.00
2023-05-15T06:38:03.580Z,812.00
2023-05-15T06:39:03.616Z,813.00
2023-05-15T06:40:03.681Z,812.00
2023-05-15T06:41:04.096Z,811.00
2023-05-15T06:42:07.312Z,809.00
2023-05-15T06:43:04.124Z,809.00
2023-05-15T06:44:03.791Z,806.00
2023-05-15T06:45:03.815Z,806.00
2023-05-15T06:46:03.919Z,808.00
2023-05-15T06:47:05.156Z,809.00
2023-05-15T06:48:03.823Z,810.00
2023-05-15T06:49:03.847Z,809.00
2023-05-15T06:50:11.298Z,810.00
2023-05-15T06:51:03.925Z,809.00
2023-05-15T06:52:04.104Z,809.00
2023-05-15T06:53:04.020Z,805.00
2023-05-15T06:54:04.104Z,805.00
2023-05-15T06:55:03.872Z,805.00
2023-05-15T06:56:03.877Z,804.00
2023-05-15T06:57:04.109Z,804.00
2023-05-15T06:58:03.853Z,805.00
2023-05-15T06:59:03.852Z,805.00
2023-05-15T07:00:03.843Z,806.00
2023-05-15T07:01:03.865Z,804.00
2023-05-15T07:02:04.184Z,804.00
2023-05-15T07:03:03.918Z,804.00
2023-05-15T07:04:03.834Z,804.00
2023-05-15T07:05:03.972Z,804.00
2023-05-15T07:06:04.107Z,803.00
2023-05-15T07:07:03.817Z,802.00
2023-05-15T07:08:03.803Z,801.00
2023-05-15T07:09:04.835Z,801.00
2023-05-15T07:10:03.770Z,797.00
2023-05-15T07:11:04.122Z,797.00
2023-05-15T07:12:03.752Z,795.00
2023-05-15T07:13:03.817Z,797.00
2023-05-15T07:14:03.872Z,796.00
2023-05-15T07:15:03.934Z,796.00
2023-05-15T07:16:04.112Z,798.00
2023-05-15T07:17:04.076Z,800.00
2023-05-15T07:18:04.204Z,800.00
2023-05-15T07:19:04.330Z,803.00
2023-05-15T07:20:04.238Z,803.00
2023-05-15T07:21:04.615Z,802.00
2023-05-15T07:22:04.359Z,800.00
2023-05-15T07:23:04.622Z,799.00
2023-05-15T07:24:04.490Z,799.00
2023-05-15T07:25:07.842Z,798.00
2023-05-15T07:26:05.546Z,795.00
2023-05-15T07:27:04.521Z,797.00
2023-05-15T07:28:04.716Z,797.00
2023-05-15T07:29:04.616Z,797.00
2023-05-15T07:30:04.588Z,798.00
2023-05-15T07:31:05.953Z,794.00
2023-05-15T07:32:04.879Z,791.00
2023-05-15T07:33:12.000Z,791.00
2023-05-15T07:34:04.617Z,790.00
2023-05-15T07:35:37.459Z,789.00
2023-05-15T07:36:12.059Z,786.00
2023-05-15T07:37:07.800Z,785.00
2023-05-15T07:38:04.595Z,784.00
2023-05-15T07:39:36.779Z,786.00
2023-05-15T07:40:04.605Z,792.00
2023-05-15T07:41:04.801Z,803.00
2023-05-15T07:42:04.623Z,851.00
2023-05-15T07:43:05.188Z,923.00
2023-05-15T07:44:04.581Z,923.00
2023-05-15T07:45:04.560Z,930.00
2023-05-15T07:46:05.659Z,977.00
2023-05-15T07:47:04.646Z,996.00
2023-05-15T07:48:04.668Z,1010.00
2023-05-15T07:49:04.532Z,1027.00
2023-05-15T07:50:04.496Z,1045.00
2023-05-15T07:51:04.477Z,1075.00
2023-05-15T07:52:04.478Z,1093.00
2023-05-15T07:53:07.877Z,1113.00
2023-05-15T07:54:11.866Z,1142.00
2023-05-15T07:55:04.478Z,1183.00
2023-05-15T07:56:04.472Z,1222.00
2023-05-15T07:57:04.697Z,1256.00
2023-05-15T07:58:04.627Z,1274.00
2023-05-15T07:59:04.499Z,1285.00
2023-05-15T08:00:04.438Z,1308.00
2023-05-15T08:01:04.427Z,1337.00
2023-05-15T08:02:05.459Z,1370.00
2023-05-15T08:03:04.765Z,1380.00
2023-05-15T08:04:04.522Z,1392.00
2023-05-15T08:05:05.397Z,1407.00
2023-05-15T08:06:05.384Z,1424.00
2023-05-15T08:07:04.376Z,1437.00
2023-05-15T08:08:04.644Z,1441.00
2023-05-15T08:09:04.363Z,1458.00
2023-05-15T08:10:04.364Z,1474.00
2023-05-15T08:11:04.367Z,1493.00
2023-05-15T08:12:04.334Z,1509.00
2023-05-15T08:13:04.771Z,1522.00
2023-05-15T08:14:04.373Z,1550.00
2023-05-15T08:15:04.374Z,1574.00
2023-05-15T08:16:04.326Z,1586.00
2023-05-15T08:17:04.380Z,1599.00
2023-05-15T08:18:04.674Z,1618.00
2023-05-15T08:19:04.515Z,1625.00
2023-05-15T08:20:05.548Z,1639.00
2023-05-15T08:21:07.824Z,1662.00
2023-05-15T08:22:04.599Z,1685.00
2023-05-15T08:23:04.596Z,1703.00
2023-05-15T08:24:04.616Z,1718.00
2023-05-15T08:25:04.601Z,1734.00
2023-05-15T08:26:05.564Z,1750.00
2023-05-15T08:27:04.570Z,1773.00
2023-05-15T08:28:04.667Z,1789.00
2023-05-15T08:29:05.587Z,1800.00
2023-05-15T08:30:07.834Z,1811.00
2023-05-15T08:31:04.663Z,1822.00
2023-05-15T08:32:04.620Z,1833.00
2023-05-15T08:33:04.793Z,1856.00
2023-05-15T08:34:04.587Z,1875.00
2023-05-15T08:35:04.634Z,1890.00
2023-05-15T08:36:04.647Z,1901.00
2023-05-15T08:37:04.568Z,1913.00
2023-05-15T08:38:04.555Z,1926.00
2023-05-15T08:39:04.658Z,1950.00
2023-05-15T08:40:04.655Z,1963.00
2023-05-15T08:41:04.531Z,1972.00
2023-05-15T08:42:04.538Z,1981.00
2023-05-15T08:43:11.904Z,1992.00
2023-05-15T08:44:20.204Z,2011.00
2023-05-15T08:45:12.032Z,2144.00
2023-05-15T08:46:11.930Z,2145.00
2023-05-15T08:47:04.628Z,2141.00
2023-05-15T08:50:05.478Z,2175.00
2023-05-15T08:51:07.672Z,2190.00
2023-05-15T08:52:04.456Z,2218.00
2023-05-15T08:53:04.643Z,2249.00
2023-05-15T08:54:04.440Z,2272.00
2023-05-15T08:55:04.457Z,2292.00
2023-05-15T08:56:04.458Z,2315.00
2023-05-15T08:57:05.430Z,2334.00
2023-05-15T08:58:04.653Z,2353.00
2023-05-15T08:59:04.430Z,2367.00
2023-05-15T09:00:05.059Z,2378.00
2023-05-15T09:01:04.629Z,2385.00
2023-05-15T09:02:05.418Z,2393.00
2023-05-15T09:03:05.236Z,2400.00
2023-05-15T09:04:04.805Z,2414.00
2023-05-15T09:05:05.158Z,2435.00
2023-05-15T09:06:04.845Z,2454.00
2023-05-15T09:07:04.886Z,2478.00
2023-05-15T09:08:04.934Z,2500.00
2023-05-15T09:09:04.963Z,2513.00
2023-05-15T09:10:05.158Z,2526.00
2023-05-15T09:11:05.023Z,2539.00
2023-05-15T09:12:05.069Z,2547.00
2023-05-15T09:13:05.118Z,2561.00
2023-05-15T09:14:05.151Z,2577.00
2023-05-15T09:15:05.658Z,2589.00
2023-05-15T09:16:05.301Z,2598.00
2023-05-15T09:17:05.346Z,2610.00
2023-05-15T09:18:05.372Z,2623.00
2023-05-15T09:19:05.403Z,2629.00
2023-05-15T09:20:05.656Z,2641.00
2023-05-15T09:21:05.464Z,2650.00
2023-05-15T09:22:06.022Z,2666.00
2023-05-15T09:23:05.667Z,2688.00
2023-05-15T09:24:05.590Z,2705.00
2023-05-15T09:25:06.203Z,2732.00
2023-05-15T09:26:06.267Z,2744.00
2023-05-15T09:27:05.719Z,2770.00
2023-05-15T09:28:05.760Z,2780.00
2023-05-15T09:29:05.804Z,2768.00
2023-05-15T09:30:05.851Z,2759.00
2023-05-15T09:31:06.165Z,2755.00
2023-05-15T09:32:06.128Z,2738.00
2023-05-15T09:33:06.083Z,2709.00
2023-05-15T09:34:09.417Z,2621.00
2023-05-15T09:35:07.045Z,2598.00
2023-05-15T09:36:06.046Z,2595.00
2023-05-15T09:37:06.054Z,2582.00
2023-05-15T09:38:06.169Z,2559.00
2023-05-15T09:39:06.044Z,2556.00
2023-05-15T09:40:06.008Z,2556.00
2023-05-15T09:41:06.043Z,2557.00
2023-05-15T09:42:06.063Z,2568.00
2023-05-15T09:43:06.470Z,2580.00
2023-05-15T09:44:06.094Z,2595.00
2023-05-15T09:45:06.076Z,2593.00
2023-05-15T09:46:09.536Z,2586.00
2023-05-15T09:47:06.229Z,2609.00
2023-05-15T09:48:06.362Z,2635.00
2023-05-15T09:49:07.101Z,2664.00
2023-05-15T09:50:06.136Z,2674.00
2023-05-15T09:51:06.089Z,2675.00
2023-05-15T09:52:06.085Z,2688.00
2023-05-15T09:53:09.320Z,2700.00
2023-05-15T09:54:06.112Z,2704.00
2023-05-15T09:55:06.077Z,2719.00
2023-05-15T09:56:06.166Z,2721.00
2023-05-15T09:57:06.079Z,2726.00
2023-05-15T09:58:06.229Z,2735.00
2023-05-15T09:59:06.035Z,2747.00
2023-05-15T10:00:06.038Z,2763.00
2023-05-15T10:01:06.091Z,2772.00
2023-05-15T10:02:06.013Z,2775.00
2023-05-15T10:03:06.070Z,2782.00
2023-05-15T10:04:06.037Z,2792.00
2023-05-15T10:05:06.012Z,2807.00
2023-05-15T10:06:06.044Z,2813.00
2023-05-15T10:07:05.975Z,2827.00
2023-05-15T10:08:05.968Z,2839.00
2023-05-15T10:09:05.963Z,2850.00
2023-05-15T10:10:05.969Z,2861.00
2023-05-15T10:11:06.175Z,2869.00
2023-05-15T10:12:05.940Z,2879.00
2023-05-15T10:13:06.198Z,2893.00
2023-05-15T10:14:05.929Z,2903.00
2023-05-15T10:15:05.960Z,2915.00
2023-05-15T10:16:06.096Z,2931.00
2023-05-15T10:17:06.059Z,2940.00
2023-05-15T10:18:06.263Z,2944.00
2023-05-15T10:19:06.211Z,2948.00
2023-05-15T10:20:06.254Z,2950.00
2023-05-15T10:21:06.271Z,2952.00
2023-05-15T10:22:06.316Z,2956.00
2023-05-15T10:23:06.762Z,2965.00
2023-05-15T10:24:06.678Z,2963.00
2023-05-15T10:25:06.515Z,2950.00
2023-05-15T10:26:06.560Z,2942.00
2023-05-15T10:27:06.655Z,2936.00
2023-05-15T10:28:06.677Z,2923.00
2023-05-15T10:29:07.181Z,2905.00
2023-05-15T10:30:06.811Z,2892.00
2023-05-15T10:31:07.225Z,2879.00
2023-05-15T10:32:07.521Z,2872.00
2023-05-15T10:33:07.040Z,2866.00
2023-05-15T10:34:07.044Z,2850.00
2023-05-15T10:35:07.109Z,2839.00
2023-05-15T10:36:07.199Z,2832.00
2023-05-15T10:37:07.214Z,2835.00
2023-05-15T10:38:07.260Z,2838.00
2023-05-15T10:39:07.344Z,2834.00
2023-05-15T10:40:07.361Z,2837.00
2023-05-15T10:41:16.641Z,2525.00
2023-05-15T10:42:07.686Z,1975.00
2023-05-15T10:43:07.370Z,1572.00
2023-05-15T10:44:07.705Z,1526.00
2023-05-15T10:45:07.408Z,1354.00
2023-05-15T10:46:07.360Z,1298.00
2023-05-15T10:47:07.407Z,1157.00
2023-05-15T10:48:07.397Z,1090.00
2023-05-15T10:49:07.695Z,1017.00
2023-05-15T10:50:07.330Z,1009.00
2023-05-15T10:51:07.641Z,915.00
2023-05-15T10:52:07.324Z,904.00
2023-05-15T10:53:07.297Z,886.00
2023-05-15T10:54:08.033Z,884.00
2023-05-15T10:55:07.285Z,866.00
2023-05-15T10:56:07.716Z,822.00
2023-05-15T10:57:07.270Z,804.00
2023-05-15T10:58:07.265Z,788.00
2023-05-15T10:59:07.264Z,773.00
2023-05-15T11:00:07.282Z,783.00
2023-05-15T11:01:07.780Z,800.00
2023-05-15T11:02:07.307Z,810.00
2023-05-15T11:03:07.383Z,823.00
2023-05-15T11:04:07.732Z,832.00
2023-05-15T11:05:07.491Z,840.00
2023-05-15T11:06:07.533Z,847.00
2023-05-15T11:07:07.604Z,856.00
2023-05-15T11:08:07.667Z,864.00
2023-05-15T11:09:08.192Z,872.00
2023-05-15T11:10:07.738Z,879.00
2023-05-15T11:11:07.862Z,879.00
2023-05-15T11:12:07.821Z,887.00
2023-05-15T11:13:07.865Z,890.00
2023-05-15T11:14:08.197Z,897.00
2023-05-15T11:15:07.928Z,901.00
2023-05-15T11:16:07.959Z,905.00
2023-05-15T11:17:08.218Z,948.00
2023-05-15T11:18:08.046Z,980.00
2023-05-15T11:19:08.234Z,988.00
2023-05-15T11:20:09.033Z,1091.00
2023-05-15T11:21:08.218Z,1085.00
2023-05-15T11:22:08.067Z,1082.00
2023-05-15T11:23:08.056Z,1081.00
2023-05-15T11:24:08.112Z,1062.00
2023-05-15T11:25:08.071Z,1068.00
2023-05-15T11:26:08.224Z,1076.00
2023-05-15T11:27:08.094Z,1108.00
2023-05-15T11:28:08.081Z,1176.00
2023-05-15T11:29:08.202Z,1192.00
2023-05-15T11:30:08.093Z,1228.00
2023-05-15T11:31:11.405Z,1250.00
2023-05-15T11:32:08.094Z,1255.00
2023-05-15T11:33:08.162Z,1274.00
2023-05-15T11:34:08.478Z,1289.00
2023-05-15T11:35:08.417Z,1297.00
2023-05-15T11:36:08.059Z,1298.00
2023-05-15T11:37:08.208Z,1300.00
2023-05-15T11:38:08.046Z,1302.00
2023-05-15T11:39:08.202Z,1302.00
2023-05-15T11:40:08.092Z,1307.00
2023-05-15T11:41:08.025Z,1309.00
2023-05-15T11:42:08.205Z,1312.00
2023-05-15T11:43:08.013Z,1314.00
2023-05-15T11:44:08.211Z,1314.00
2023-05-15T11:45:07.995Z,1316.00
2023-05-15T11:46:08.086Z,1319.00
2023-05-15T11:47:08.008Z,1323.00
2023-05-15T11:48:08.057Z,1329.00
2023-05-15T11:49:08.202Z,1333.00
2023-05-15T11:50:07.963Z,1339.00
2023-05-15T11:51:07.953Z,1344.00
2023-05-15T11:52:07.956Z,1350.00
2023-05-15T11:53:07.945Z,1356.00
2023-05-15T11:54:08.207Z,1364.00
2023-05-15T11:55:07.983Z,1366.00
2023-05-15T11:56:08.157Z,1370.00
2023-05-15T11:57:08.065Z,1376.00
2023-05-15T11:58:08.113Z,1380.00
2023-05-15T11:59:08.139Z,1384.00
2023-05-15T12:00:08.176Z,1390.00
2023-05-15T12:01:10.312Z,1393.00
2023-05-15T12:02:08.200Z,1397.00
2023-05-15T12:03:09.222Z,1403.00
2023-05-15T12:04:08.331Z,1409.00
2023-05-15T12:05:08.260Z,1413.00
2023-05-15T12:06:08.199Z,1415.00
2023-05-15T12:07:08.161Z,1420.00
2023-05-15T12:08:08.149Z,1426.00
2023-05-15T12:09:08.218Z,1430.00
2023-05-15T12:10:08.140Z,1435.00
2023-05-15T12:11:08.144Z,1435.00
2023-05-15T12:12:08.180Z,1435.00
2023-05-15T12:13:08.194Z,1441.00
2023-05-15T12:14:08.715Z,1441.00
2023-05-15T12:15:08.280Z,1443.00
2023-05-15T12:16:08.350Z,1445.00
2023-05-15T12:17:08.369Z,1450.00
2023-05-15T12:18:08.421Z,1453.00
2023-05-15T12:19:08.786Z,1449.00
2023-05-15T12:20:08.502Z,1448.00
2023-05-15T12:21:08.546Z,1447.00
2023-05-15T12:22:08.615Z,1448.00
2023-05-15T12:23:08.637Z,1445.00
2023-05-15T12:24:11.932Z,1443.00
2023-05-15T12:25:08.728Z,1442.00
2023-05-15T12:26:08.665Z,1443.00
2023-05-15T12:27:09.184Z,1442.00